Time;durP1;ratioP1;P1;durP2;ratioP2;P2;SDS_P1;SDS_P2;PMS_P1;PMS_P2;Temp;Humidity;BMP_temperature;BMP_pressure;BME280_temperature;BME280_humidity;BME280_pressure;Samples;Min_cycle;Max_cycle;Signal;HPM_P1;HPM_P2
2021/06/07 00:00:56;;;;;;;1.27;0.63;;;21.60;70.70;;;;;;5110862;28;20096;-88
2021/06/07 00:03:22;;;;;;;1.60;0.68;;;21.60;70.80;;;;;;5108267;28;20027;-80
2021/06/07 00:05:48;;;;;;;1.70;0.50;;;21.60;70.50;;;;;;5110236;28;20387;-82
2021/06/07 00:08:13;;;;;;;0.73;0.40;;;21.60;70.50;;;;;;5109890;28;20035;-85
2021/06/07 00:10:39;;;;;;;1.10;0.50;;;21.60;70.50;;;;;;5110213;28;20098;-86
2021/06/07 00:13:06;;;;;;;1.10;0.60;;;21.60;70.50;;;;;;5109403;28;20114;-84
2021/06/07 00:15:33;;;;;;;1.17;0.50;;;21.60;70.50;;;;;;5110516;28;20034;-85
2021/06/07 00:17:59;;;;;;;1.85;0.60;;;21.60;70.40;;;;;;5110404;28;20020;-85
2021/06/07 00:20:30;;;;;;;0.95;0.50;;;21.50;70.30;;;;;;5109922;28;20529;-85
2021/06/07 00:22:56;;;;;;;2.15;0.80;;;21.50;70.20;;;;;;5107839;28;20547;-86
2021/06/07 00:25:21;;;;;;;1.50;0.73;;;21.50;70.30;;;;;;5109972;28;20024;-84
2021/06/07 00:27:47;;;;;;;1.27;0.63;;;21.50;70.30;;;;;;5110361;28;20032;-86
2021/06/07 00:30:13;;;;;;;1.67;0.70;;;21.50;70.30;;;;;;5110196;28;20039;-87
2021/06/07 00:32:38;;;;;;;1.45;0.60;;;21.50;70.20;;;;;;5110322;28;20068;-84
2021/06/07 00:35:05;;;;;;;1.27;0.60;;;21.50;70.30;;;;;;5109852;28;21446;-81
2021/06/07 00:37:30;;;;;;;1.60;0.75;;;21.50;70.10;;;;;;5110399;28;20015;-85
2021/06/07 00:39:56;;;;;;;1.05;0.50;;;21.50;69.90;;;;;;5110929;28;20027;-83
2021/06/07 00:42:22;;;;;;;1.05;0.60;;;21.50;70.00;;;;;;5109949;28;20031;-85
2021/06/07 00:44:48;;;;;;;1.50;0.82;;;21.50;70.00;;;;;;5111365;28;20479;-85
2021/06/07 00:47:14;;;;;;;1.08;0.60;;;21.50;70.00;;;;;;5111156;28;20168;-82
2021/06/07 00:49:41;;;;;;;1.67;0.80;;;21.50;70.00;;;;;;5111336;28;20487;-85
2021/06/07 00:52:07;;;;;;;2.60;1.13;;;21.50;69.60;;;;;;5110933;28;20479;-82
2021/06/07 00:54:32;;;;;;;1.08;0.63;;;21.50;69.80;;;;;;5111209;28;20043;-82
2021/06/07 00:56:58;;;;;;;1.25;0.55;;;21.40;69.80;;;;;;5111097;28;20031;-84
2021/06/07 00:59:24;;;;;;;2.25;0.80;;;21.40;69.80;;;;;;5111091;28;20032;-84
2021/06/07 01:01:49;;;;;;;1.15;0.70;;;21.40;69.60;;;;;;5111144;28;20551;-82
2021/06/07 01:04:15;;;;;;;2.20;0.70;;;21.40;69.50;;;;;;5110641;28;20502;-85
2021/06/07 01:06:41;;;;;;;2.30;0.90;;;21.40;69.60;;;;;;5111012;28;20380;-83
2021/06/07 01:09:08;;;;;;;1.50;0.80;;;21.40;69.50;;;;;;5110885;28;20100;-80
2021/06/07 01:11:35;;;;;;;1.05;0.60;;;21.40;69.40;;;;;;5111248;28;20024;-79
2021/06/07 01:14:02;;;;;;;1.38;0.75;;;21.40;69.40;;;;;;5111497;28;20024;-79
2021/06/07 01:16:28;;;;;;;0.50;0.50;;;21.40;69.40;;;;;;5109871;28;20055;-82
2021/06/07 01:18:53;;;;;;;1.58;0.63;;;21.40;69.40;;;;;;5111070;28;20055;-82
2021/06/07 01:21:25;;;;;;;1.50;0.70;;;21.40;69.40;;;;;;5110847;28;20028;-78
2021/06/07 01:23:53;;;;;;;0.88;0.68;;;21.30;69.20;;;;;;5111679;28;20391;-79
2021/06/07 01:26:21;;;;;;;2.20;0.77;;;21.40;69.40;;;;;;5114344;27;20015;-80
2021/06/07 01:28:47;;;;;;;1.88;0.68;;;21.30;69.10;;;;;;5114566;28;20111;-78
2021/06/07 01:31:14;;;;;;;2.50;0.80;;;21.30;69.10;;;;;;5114192;28;20049;-77
2021/06/07 01:33:44;;;;;;;0.93;0.73;;;21.40;69.10;;;;;;5114279;28;20027;-81
2021/06/07 01:36:10;;;;;;;1.60;1.10;;;21.30;69.20;;;;;;5114260;28;20103;-76
2021/06/07 01:38:36;;;;;;;2.28;0.95;;;21.30;69.10;;;;;;5114565;28;20016;-77
2021/06/07 01:41:05;;;;;;;1.33;0.88;;;21.30;69.00;;;;;;5114796;27;20050;-77
2021/06/07 01:43:32;;;;;;;1.30;0.60;;;21.30;69.00;;;;;;5115224;28;20027;-89
2021/06/07 01:45:58;;;;;;;0.77;0.70;;;21.30;68.90;;;;;;5115001;28;20054;-89
2021/06/07 01:48:25;;;;;;;1.55;0.70;;;21.30;69.00;;;;;;5113214;28;20559;-89
2021/06/07 01:50:53;;;;;;;1.88;0.80;;;21.30;68.90;;;;;;5114362;28;20108;-88
2021/06/07 01:53:26;;;;;;;1.50;0.70;;;21.30;68.90;;;;;;5114270;27;20051;-88
2021/06/07 01:55:54;;;;;;;2.08;0.73;;;21.30;69.00;;;;;;5114026;28;20031;-87
2021/06/07 01:58:21;;;;;;;1.73;0.82;;;21.20;68.80;;;;;;5114143;28;20019;-89
2021/06/07 02:00:48;;;;;;;1.60;0.60;;;21.20;68.70;;;;;;5114561;28;20433;-89
2021/06/07 02:03:16;;;;;;;1.35;0.80;;;21.20;68.90;;;;;;5114083;28;20020;-86
2021/06/07 02:05:44;;;;;;;1.85;0.70;;;21.20;68.70;;;;;;5112276;28;20034;-87
2021/06/07 02:08:14;;;;;;;0.80;0.52;;;21.20;68.80;;;;;;5113235;28;20047;-85
2021/06/07 02:10:47;;;;;;;1.85;0.85;;;21.20;68.70;;;;;;5114406;28;20103;-87
2021/06/07 02:13:13;;;;;;;1.55;0.70;;;21.20;68.70;;;;;;5113655;28;20016;-87
2021/06/07 02:15:40;;;;;;;1.13;0.77;;;21.20;68.70;;;;;;5113929;28;20398;-86
2021/06/07 02:18:08;;;;;;;1.13;0.70;;;21.20;68.70;;;;;;5114074;28;20486;-86
2021/06/07 02:20:35;;;;;;;0.90;0.60;;;21.20;68.70;;;;;;5113725;28;20498;-86
2021/06/07 02:23:00;;;;;;;1.80;0.68;;;21.10;68.60;;;;;;5113923;28;20024;-84
2021/06/07 02:25:26;;;;;;;1.85;0.80;;;21.10;68.60;;;;;;5113398;28;20498;-81
2021/06/07 02:27:53;;;;;;;1.95;0.70;;;21.20;68.60;;;;;;5113374;28;20019;-80
2021/06/07 02:30:21;;;;;;;2.50;1.10;;;21.10;68.60;;;;;;5112852;28;20164;-81
2021/06/07 02:32:47;;;;;;;1.98;0.82;;;21.10;68.50;;;;;;5113414;28;20030;-82
2021/06/07 02:35:16;;;;;;;1.60;0.70;;;21.10;68.40;;;;;;5112634;28;20027;-80
2021/06/07 02:37:42;;;;;;;1.63;0.90;;;21.10;68.50;;;;;;5113378;28;20027;-79
2021/06/07 02:40:11;;;;;;;1.17;0.73;;;21.10;68.50;;;;;;5112435;28;20083;-81
2021/06/07 02:42:39;;;;;;;1.55;0.80;;;21.10;68.40;;;;;;5113050;28;20479;-79
2021/06/07 02:45:07;;;;;;;1.55;0.70;;;21.10;68.50;;;;;;5111576;28;20114;-80
2021/06/07 02:47:33;;;;;;;0.98;0.57;;;21.10;68.50;;;;;;5110899;28;20031;-78
2021/06/07 02:49:59;;;;;;;1.10;0.70;;;21.10;68.40;;;;;;5113245;28;20116;-80
2021/06/07 02:52:24;;;;;;;1.55;0.80;;;21.10;68.40;;;;;;5112609;28;20559;-79
2021/06/07 02:54:50;;;;;;;2.15;0.90;;;21.00;68.20;;;;;;5112939;28;20038;-80
2021/06/07 02:57:16;;;;;;;1.10;0.60;;;21.10;68.30;;;;;;5112760;28;20023;-83
2021/06/07 02:59:42;;;;;;;1.13;0.70;;;21.00;68.10;;;;;;5111848;28;20020;-77
2021/06/07 03:02:07;;;;;;;1.17;0.60;;;21.00;68.10;;;;;;5111556;28;20095;-82
2021/06/07 03:04:33;;;;;;;0.95;0.70;;;21.00;68.10;;;;;;5113128;28;20028;-79
2021/06/07 03:06:58;;;;;;;1.75;0.77;;;21.00;68.10;;;;;;5113237;28;20024;-85
2021/06/07 03:09:24;;;;;;;1.80;0.90;;;21.00;68.10;;;;;;5112447;28;20511;-89
2021/06/07 03:11:50;;;;;;;1.63;0.80;;;21.00;68.10;;;;;;5111973;28;20427;-84
2021/06/07 03:14:15;;;;;;;3.53;1.00;;;21.00;68.20;;;;;;5111879;28;20376;-86
2021/06/07 03:16:41;;;;;;;1.17;0.80;;;21.00;68.10;;;;;;5112544;28;20022;-81
2021/06/07 03:19:07;;;;;;;1.00;0.80;;;21.00;68.10;;;;;;5112161;28;20073;-78
2021/06/07 03:21:32;;;;;;;2.88;0.73;;;21.00;68.10;;;;;;5112513;28;20492;-78
2021/06/07 03:23:58;;;;;;;1.90;0.68;;;21.00;68.00;;;;;;5112063;28;20039;-85
2021/06/07 03:26:24;;;;;;;1.48;0.65;;;21.00;68.10;;;;;;5110680;28;20020;-82
2021/06/07 03:28:49;;;;;;;1.48;0.93;;;21.00;67.90;;;;;;5110741;28;20107;-85
2021/06/07 03:31:15;;;;;;;1.27;0.80;;;20.90;67.80;;;;;;5112071;28;20055;-83
2021/06/07 03:33:41;;;;;;;2.08;0.90;;;21.00;67.90;;;;;;5110229;28;20028;-86
2021/06/07 03:36:07;;;;;;;1.35;0.90;;;21.00;68.00;;;;;;5112158;28;20473;-85
2021/06/07 03:38:33;;;;;;;1.63;0.75;;;20.90;67.80;;;;;;5112010;28;20042;-84
2021/06/07 03:40:59;;;;;;;1.67;0.88;;;20.90;67.80;;;;;;5112908;28;20034;-91
2021/06/07 03:43:29;;;;;;;1.30;0.80;;;20.90;67.70;;;;;;5112904;28;20024;-94
2021/06/07 03:45:54;;;;;;;1.35;0.90;;;20.90;67.80;;;;;;5112489;28;20035;-89
2021/06/07 03:48:20;;;;;;;1.58;0.80;;;20.90;67.70;;;;;;5112076;28;20020;-89
2021/06/07 03:50:46;;;;;;;1.73;1.10;;;20.90;67.70;;;;;;5112566;28;20404;-83
2021/06/07 03:53:12;;;;;;;3.60;1.00;;;20.90;67.70;;;;;;5112524;28;20023;-90
2021/06/07 03:55:38;;;;;;;1.05;0.65;;;20.90;67.70;;;;;;5112215;28;20157;-89
2021/06/07 03:58:04;;;;;;;1.60;0.90;;;20.90;67.70;;;;;;5112110;28;20015;-77
2021/06/07 04:00:33;;;;;;;2.13;0.90;;;20.90;67.70;;;;;;5110695;28;20024;-76
2021/06/07 04:02:59;;;;;;;1.17;0.80;;;20.90;67.70;;;;;;5111783;28;20016;-77
2021/06/07 04:05:25;;;;;;;1.27;0.80;;;20.90;67.50;;;;;;5111929;28;20035;-76
2021/06/07 04:07:52;;;;;;;1.67;0.95;;;20.90;67.60;;;;;;5111425;28;20019;-85
2021/06/07 04:10:20;;;;;;;1.20;0.75;;;20.90;67.60;;;;;;5112313;28;20055;-86
2021/06/07 04:12:47;;;;;;;1.25;0.70;;;20.90;67.50;;;;;;5111894;28;20020;-86
2021/06/07 04:15:16;;;;;;;1.30;0.73;;;20.90;67.60;;;;;;5112150;28;20072;-89
2021/06/07 04:17:42;;;;;;;1.42;0.80;;;20.90;67.50;;;;;;5111931;28;20095;-87
2021/06/07 04:20:11;;;;;;;1.05;0.60;;;20.90;67.50;;;;;;5112027;28;20555;-88
2021/06/07 04:22:37;;;;;;;2.22;1.00;;;20.90;67.40;;;;;;5111522;28;20096;-84
2021/06/07 04:25:04;;;;;;;2.70;1.25;;;20.90;67.40;;;;;;5110934;28;20434;-84
2021/06/07 04:27:30;;;;;;;1.05;0.82;;;20.90;67.50;;;;;;5110962;28;20034;-85
2021/06/07 04:29:56;;;;;;;2.42;1.25;;;20.80;67.40;;;;;;5111003;28;20040;-83
2021/06/07 04:32:21;;;;;;;1.20;0.80;;;20.90;67.60;;;;;;5111404;28;20031;-83
2021/06/07 04:34:47;;;;;;;1.58;0.90;;;20.80;67.50;;;;;;5111240;28;20047;-82
2021/06/07 04:37:13;;;;;;;1.20;0.80;;;20.80;67.50;;;;;;5111310;28;20028;-83
2021/06/07 04:39:39;;;;;;;1.55;0.98;;;20.80;67.50;;;;;;5111184;28;20042;-83
2021/06/07 04:42:06;;;;;;;3.45;1.20;;;20.80;67.50;;;;;;5111647;28;20091;-85
2021/06/07 04:44:31;;;;;;;1.35;0.80;;;20.80;67.50;;;;;;5111417;28;20050;-85
2021/06/07 04:46:57;;;;;;;2.83;0.80;;;20.80;67.40;;;;;;5110382;28;20069;-87
2021/06/07 04:49:23;;;;;;;1.77;0.82;;;20.80;67.50;;;;;;5111313;28;20035;-86
2021/06/07 04:51:49;;;;;;;1.30;1.00;;;20.80;67.50;;;;;;5110927;28;20016;-85
2021/06/07 04:54:15;;;;;;;1.75;0.90;;;20.80;67.60;;;;;;5111046;28;20027;-84
2021/06/07 04:56:40;;;;;;;1.80;0.73;;;20.80;67.40;;;;;;5110168;28;20032;-86
2021/06/07 04:59:06;;;;;;;1.20;0.60;;;20.70;67.40;;;;;;5114455;28;20034;-80
2021/06/07 05:01:32;;;;;;;0.90;0.60;;;20.80;67.50;;;;;;5114372;28;20035;-86
2021/06/07 05:03:58;;;;;;;3.95;1.05;;;20.80;67.40;;;;;;5115154;28;20024;-85
2021/06/07 05:06:24;;;;;;;1.65;0.80;;;20.80;67.80;;;;;;5114985;28;20026;-87
2021/06/07 05:08:50;;;;;;;1.85;0.80;;;20.80;67.30;;;;;;5114686;28;20066;-88
2021/06/07 05:11:15;;;;;;;1.90;0.98;;;20.80;67.30;;;;;;5114821;28;20027;-86
2021/06/07 05:13:41;;;;;;;2.63;0.90;;;20.80;67.40;;;;;;5114700;28;20073;-87
2021/06/07 05:16:08;;;;;;;0.80;0.63;;;20.80;67.30;;;;;;5114556;28;20027;-84
2021/06/07 05:18:34;;;;;;;1.67;0.88;;;20.70;67.50;;;;;;5113127;28;20024;-86
2021/06/07 05:21:01;;;;;;;1.38;0.85;;;20.80;67.30;;;;;;5114270;28;20032;-86
2021/06/07 05:23:27;;;;;;;2.85;0.85;;;20.80;67.20;;;;;;5114948;28;20027;-86
2021/06/07 05:25:52;;;;;;;1.00;0.70;;;20.80;67.90;;;;;;5114860;28;20107;-86
2021/06/07 05:28:19;;;;;;;1.45;0.80;;;20.80;67.20;;;;;;5114866;28;20030;-88
2021/06/07 05:30:48;;;;;;;2.55;1.23;;;20.80;67.20;;;;;;5114693;28;20035;-90
2021/06/07 05:33:14;;;;;;;1.20;0.77;;;20.80;67.20;;;;;;5114270;28;20034;-89
2021/06/07 05:35:43;;;;;;;2.00;1.00;;;20.80;67.30;;;;;;5114469;28;20395;-87
2021/06/07 05:38:10;;;;;;;1.45;0.77;;;20.80;67.20;;;;;;5113870;28;20073;-86
2021/06/07 05:40:37;;;;;;;1.42;0.80;;;20.80;67.20;;;;;;5114794;28;20046;-87
2021/06/07 05:43:03;;;;;;;1.52;0.80;;;20.70;67.10;;;;;;5114427;28;20020;-83
2021/06/07 05:45:29;;;;;;;1.80;0.80;;;20.80;67.20;;;;;;5113807;28;20046;-87
2021/06/07 05:47:57;;;;;;;0.82;0.70;;;20.80;67.20;;;;;;5111340;28;20100;-79
2021/06/07 05:50:25;;;;;;;1.80;0.77;;;20.80;67.10;;;;;;5112346;28;20077;-80
2021/06/07 05:52:51;;;;;;;1.27;0.70;;;20.80;67.20;;;;;;5097691;28;20110;-77
2021/06/07 05:55:23;;;;;;;0.98;0.70;;;20.80;67.20;;;;;;5113261;28;20027;-79
2021/06/07 05:57:51;;;;;;;1.20;0.80;;;20.80;67.20;;;;;;5113914;28;20479;-79
2021/06/07 06:00:20;;;;;;;1.85;0.80;;;20.80;67.20;;;;;;5113090;28;20023;-78
2021/06/07 06:02:45;;;;;;;1.65;0.75;;;20.80;67.10;;;;;;5113056;28;20035;-78
2021/06/07 06:05:11;;;;;;;1.95;0.90;;;20.80;67.20;;;;;;5113332;28;20023;-78
2021/06/07 06:07:38;;;;;;;1.50;0.73;;;20.80;67.10;;;;;;5113385;28;20027;-78
2021/06/07 06:10:04;;;;;;;1.42;0.90;;;20.80;67.20;;;;;;5112737;28;20038;-78
2021/06/07 06:12:30;;;;;;;1.25;0.77;;;20.80;67.20;;;;;;5111843;28;20494;-77
2021/06/07 06:14:56;;;;;;;1.42;0.70;;;20.80;68.10;;;;;;5112619;28;20023;-77
2021/06/07 06:17:22;;;;;;;2.33;1.10;;;20.80;68.10;;;;;;5112802;28;20035;-77
2021/06/07 06:19:47;;;;;;;9.85;7.00;;;20.80;68.10;;;;;;5096625;28;20494;-77
2021/06/07 06:22:14;;;;;;;4.78;2.72;;;20.80;68.50;;;;;;5112907;28;20058;-77
2021/06/07 06:24:40;;;;;;;5.28;2.58;;;20.90;68.50;;;;;;5113478;28;20023;-78
2021/06/07 06:27:06;;;;;;;8.40;5.40;;;20.90;68.90;;;;;;5113557;28;20034;-77
2021/06/07 06:29:32;;;;;;;3.95;3.55;;;20.90;69.10;;;;;;5110796;28;20036;-76
2021/06/07 06:31:58;;;;;;;7.38;3.92;;;20.90;69.30;;;;;;5112557;28;20034;-76
2021/06/07 06:34:24;;;;;;;4.13;3.22;;;20.90;69.40;;;;;;5112777;28;20034;-77
2021/06/07 06:36:49;;;;;;;4.50;3.35;;;20.90;69.40;;;;;;5112780;28;20024;-77
2021/06/07 06:39:15;;;;;;;5.78;3.53;;;20.90;69.60;;;;;;5113184;28;20092;-76
2021/06/07 06:41:40;;;;;;;4.45;2.80;;;20.90;69.80;;;;;;5110999;28;20429;-77
2021/06/07 06:44:06;;;;;;;9.27;3.55;;;21.00;70.00;;;;;;5111846;28;20019;-77
2021/06/07 06:46:32;;;;;;;6.32;3.13;;;21.00;70.40;;;;;;5109357;28;20057;-77
2021/06/07 06:48:58;;;;;;;5.10;3.25;;;21.00;70.40;;;;;;5112098;28;20026;-76
2021/06/07 06:51:24;;;;;;;9.55;3.67;;;21.00;70.30;;;;;;5112127;28;20036;-76
2021/06/07 06:53:50;;;;;;;5.50;3.35;;;21.00;70.50;;;;;;5111726;28;20016;-77
2021/06/07 06:56:16;;;;;;;5.00;3.28;;;21.00;70.40;;;;;;5112071;28;20028;-76
2021/06/07 06:58:41;;;;;;;5.70;2.47;;;21.00;70.10;;;;;;5111933;28;20026;-76
2021/06/07 07:01:08;;;;;;;5.90;2.70;;;21.00;70.30;;;;;;5110560;28;20123;-78
2021/06/07 07:03:33;;;;;;;3.70;2.42;;;21.00;70.20;;;;;;5109423;28;20030;-77
2021/06/07 07:06:02;;;;;;;3.20;2.30;;;21.00;70.10;;;;;;5111313;28;20027;-77
2021/06/07 07:08:29;;;;;;;4.18;2.50;;;21.00;70.10;;;;;;5110820;28;20031;-76
2021/06/07 07:10:56;;;;;;;4.70;2.20;;;21.00;70.00;;;;;;5110703;28;20036;-77
2021/06/07 07:13:22;;;;;;;3.30;1.80;;;21.00;69.90;;;;;;5111932;28;20407;-77
2021/06/07 07:15:48;;;;;;;6.47;2.20;;;21.00;69.90;;;;;;5111181;28;20024;-77
2021/06/07 07:18:13;;;;;;;3.35;1.60;;;21.00;69.90;;;;;;5110712;28;20023;-77
2021/06/07 07:20:41;;;;;;;3.70;2.08;;;21.00;69.80;;;;;;5112306;28;20047;-77
2021/06/07 07:23:07;;;;;;;5.25;2.20;;;21.00;69.80;;;;;;5112476;28;20015;-77
2021/06/07 07:25:34;;;;;;;4.18;1.60;;;21.00;69.80;;;;;;5111546;28;20483;-77
2021/06/07 07:28:00;;;;;;;2.88;1.55;;;21.00;69.80;;;;;;5110511;28;20054;-77
2021/06/07 07:30:27;;;;;;;2.45;1.70;;;21.10;69.90;;;;;;5111654;28;20055;-77
2021/06/07 07:32:54;;;;;;;3.90;1.60;;;21.00;69.80;;;;;;5111723;28;20047;-78
2021/06/07 07:35:20;;;;;;;4.35;1.40;;;21.00;69.70;;;;;;5112130;28;20015;-77
2021/06/07 07:37:46;;;;;;;2.35;1.23;;;21.00;69.70;;;;;;5111009;28;20077;-77
2021/06/07 07:40:14;;;;;;;6.45;1.60;;;21.00;69.70;;;;;;5111644;28;20062;-77
2021/06/07 07:42:41;;;;;;;3.15;1.40;;;21.00;69.60;;;;;;5111527;28;20020;-77
2021/06/07 07:45:09;;;;;;;2.55;1.10;;;21.00;69.50;;;;;;5110900;28;20441;-77
2021/06/07 07:47:35;;;;;;;2.38;1.25;;;21.00;69.50;;;;;;5110735;28;20082;-77
2021/06/07 07:50:03;;;;;;;2.63;1.10;;;21.10;69.60;;;;;;5111674;28;20424;-77
2021/06/07 07:52:28;;;;;;;2.97;0.95;;;21.00;69.50;;;;;;5110740;28;20104;-77
2021/06/07 07:54:55;;;;;;;4.03;1.35;;;21.10;69.60;;;;;;5111444;28;20024;-78
2021/06/07 07:57:22;;;;;;;2.40;1.30;;;21.00;69.50;;;;;;5111809;28;20036;-77
2021/06/07 07:59:49;;;;;;;3.20;1.30;;;21.00;69.50;;;;;;5111366;27;20042;-77
2021/06/07 08:02:16;;;;;;;1.90;0.80;;;21.00;69.50;;;;;;5111597;28;20102;-77
2021/06/07 08:04:41;;;;;;;2.72;1.20;;;21.00;69.50;;;;;;5111286;28;20032;-77
2021/06/07 08:07:08;;;;;;;1.50;0.93;;;21.00;69.60;;;;;;5110557;28;20023;-77
2021/06/07 08:09:35;;;;;;;2.40;1.08;;;21.10;69.60;;;;;;5110398;28;20035;-77
2021/06/07 08:12:02;;;;;;;2.80;1.40;;;21.00;69.50;;;;;;5111173;28;20027;-77
2021/06/07 08:14:28;;;;;;;2.08;0.98;;;21.00;69.60;;;;;;5110831;28;20490;-77
2021/06/07 08:16:55;;;;;;;2.30;1.00;;;21.00;69.60;;;;;;5111652;28;20034;-77
2021/06/07 08:19:22;;;;;;;2.45;1.00;;;21.00;69.60;;;;;;5111164;28;20495;-77
2021/06/07 08:21:47;;;;;;;3.33;1.00;;;21.00;69.60;;;;;;5110965;28;20102;-77
2021/06/07 08:24:13;;;;;;;2.03;1.00;;;21.10;69.60;;;;;;5111840;28;20115;-77
2021/06/07 08:26:39;;;;;;;2.97;1.30;;;21.00;69.60;;;;;;5111325;28;20076;-77
2021/06/07 08:29:04;;;;;;;1.38;0.82;;;21.00;69.60;;;;;;5111370;28;20093;-77
2021/06/07 08:31:30;;;;;;;3.17;1.00;;;21.00;69.60;;;;;;5110532;28;20081;-77
2021/06/07 08:33:56;;;;;;;1.60;0.90;;;21.00;69.70;;;;;;5114200;28;20027;-77
2021/06/07 08:36:22;;;;;;;3.85;1.02;;;21.00;69.70;;;;;;5115362;28;20024;-77
2021/06/07 08:38:47;;;;;;;2.90;1.10;;;21.00;69.70;;;;;;5114928;28;20031;-77
2021/06/07 08:41:13;;;;;;;4.13;1.10;;;21.10;69.80;;;;;;5115310;28;20019;-78
2021/06/07 08:43:39;;;;;;;1.65;1.00;;;21.00;69.80;;;;;;5114994;28;20523;-76
2021/06/07 08:46:05;;;;;;;2.75;1.02;;;21.10;69.90;;;;;;5113234;28;20442;-77
2021/06/07 08:48:31;;;;;;;4.05;1.38;;;21.00;69.80;;;;;;5114733;28;20024;-77
2021/06/07 08:51:01;;;;;;;1.20;1.08;;;21.00;69.80;;;;;;5114524;28;20072;-76
2021/06/07 08:53:27;;;;;;;2.85;1.40;;;21.00;69.90;;;;;;5115014;28;20032;-76
2021/06/07 08:55:53;;;;;;;1.45;0.85;;;21.00;70.00;;;;;;5115214;28;20055;-76
2021/06/07 08:58:19;;;;;;;3.67;1.23;;;21.00;70.00;;;;;;5115087;28;20055;-77
2021/06/07 09:00:45;;;;;;;2.45;1.05;;;21.00;70.10;;;;;;5114400;28;20027;-79
2021/06/07 09:03:20;;;;;;;7.00;2.10;;;21.10;70.30;;;;;;5115407;28;20074;-78
2021/06/07 09:05:52;;;;;;;2.08;1.02;;;21.10;70.70;;;;;;5114078;28;20835;-76
2021/06/07 09:08:18;;;;;;;3.08;1.70;;;21.10;72.00;;;;;;5115007;28;20081;-79
2021/06/07 09:10:49;;;;;;;4.63;1.65;;;21.10;73.70;;;;;;5114432;28;20503;-78
2021/06/07 09:13:16;;;;;;;4.15;1.73;;;21.10;76.20;;;;;;5114262;28;20426;-78
2021/06/07 09:15:50;;;;;;;3.72;1.73;;;21.10;77.40;;;;;;5114904;28;20020;-78
2021/06/07 09:18:43;;;;;;;3.17;2.33;;;21.10;78.30;;;;;;5113904;28;20027;-79
2021/06/07 09:21:23;;;;;;;6.05;4.10;;;21.20;79.20;;;;;;5112923;28;20107;-78
2021/06/07 09:23:54;;;;;;;4.68;2.75;;;21.20;79.90;;;;;;5114554;28;20020;-78
2021/06/07 09:26:35;;;;;;;2.85;1.80;;;21.20;80.30;;;;;;5113141;28;20027;-79
2021/06/07 09:29:06;;;;;;;6.13;2.10;;;21.20;80.20;;;;;;5114570;28;20114;-77
2021/06/07 09:31:38;;;;;;;3.70;1.85;;;21.20;80.10;;;;;;5113849;27;20103;-76
2021/06/07 09:34:07;;;;;;;4.03;1.80;;;21.20;80.10;;;;;;5113456;28;20043;-78
2021/06/07 09:36:34;;;;;;;3.80;1.58;;;21.20;79.50;;;;;;5113420;28;20035;-78
2021/06/07 09:39:05;;;;;;;3.30;1.83;;;21.20;79.40;;;;;;5113123;28;20016;-79
2021/06/07 09:41:42;;;;;;;2.60;1.73;;;21.20;79.30;;;;;;5113467;28;20032;-79
2021/06/07 09:44:08;;;;;;;3.88;1.42;;;21.20;79.20;;;;;;5112195;28;20445;-79
2021/06/07 09:46:34;;;;;;;2.05;1.20;;;21.30;79.20;;;;;;5112648;28;20130;-79
2021/06/07 09:49:11;;;;;;;4.05;1.50;;;21.30;79.00;;;;;;5113826;28;20031;-79
2021/06/07 09:51:39;;;;;;;3.17;1.60;;;21.30;78.90;;;;;;5111719;28;20035;-78
2021/06/07 09:54:06;;;;;;;5.25;1.40;;;21.30;78.70;;;;;;5113767;28;20035;-79
2021/06/07 09:56:46;;;;;;;1.63;1.00;;;21.30;78.50;;;;;;5113731;28;20472;-79
2021/06/07 09:59:23;;;;;;;2.22;1.20;;;21.30;78.30;;;;;;5114137;28;20073;-79
2021/06/07 10:01:50;;;;;;;3.92;1.40;;;21.30;78.10;;;;;;5112402;28;20027;-79
2021/06/07 10:04:16;;;;;;;5.90;1.70;;;21.30;78.00;;;;;;5114175;28;20028;-79
2021/06/07 10:06:42;;;;;;;2.65;1.10;;;21.30;77.70;;;;;;5112805;28;20020;-79
2021/06/07 10:09:09;;;;;;;2.03;1.13;;;21.30;77.50;;;;;;5113769;27;20068;-79
2021/06/07 10:11:45;;;;;;;2.45;1.20;;;21.30;77.30;;;;;;5111521;28;20036;-79
2021/06/07 10:14:18;;;;;;;2.08;0.90;;;21.30;77.20;;;;;;5113465;28;20020;-79
2021/06/07 10:16:49;;;;;;;2.58;1.23;;;21.30;76.80;;;;;;5112331;28;20030;-79
2021/06/07 10:19:19;;;;;;;2.50;1.00;;;21.30;76.70;;;;;;5113630;28;20059;-79
2021/06/07 10:21:46;;;;;;;2.08;0.90;;;21.30;76.50;;;;;;5110864;28;20032;-79
2021/06/07 10:24:14;;;;;;;4.45;1.15;;;21.30;76.40;;;;;;5113392;28;20391;-79
2021/06/07 10:26:40;;;;;;;2.00;1.05;;;21.30;76.40;;;;;;5111470;28;20034;-78
2021/06/07 10:29:06;;;;;;;1.85;0.93;;;21.30;76.30;;;;;;5113273;28;20479;-79
2021/06/07 10:31:38;;;;;;;11.70;3.17;;;21.30;76.20;;;;;;5112423;28;20028;-78
2021/06/07 10:34:09;;;;;;;29.10;6.93;;;21.30;76.20;;;;;;5111795;28;20394;-79
2021/06/07 10:36:41;;;;;;;24.63;6.82;;;21.30;76.70;;;;;;5113043;28;20471;-79
2021/06/07 10:39:09;;;;;;;24.58;6.38;;;21.30;77.20;;;;;;5111900;28;20047;-77
2021/06/07 10:41:35;;;;;;;147.10;70.40;;;21.30;77.50;;;;;;5112437;28;20026;-78
2021/06/07 10:44:02;;;;;;;51.15;19.25;;;21.40;78.80;;;;;;5113163;28;20015;-78
2021/06/07 10:46:34;;;;;;;60.53;22.80;;;21.40;79.20;;;;;;5112554;28;20031;-78
2021/06/07 10:49:02;;;;;;;73.85;23.00;;;21.40;79.70;;;;;;5111862;28;20036;-77
2021/06/07 10:51:31;;;;;;;65.32;20.13;;;21.40;80.30;;;;;;5112177;28;20036;-77
2021/06/07 10:54:30;;;;;;;55.00;17.83;;;21.40;80.40;;;;;;5112481;28;20023;-77
2021/06/07 10:57:22;;;;;;;49.83;16.15;;;21.50;80.70;;;;;;5111798;28;20039;-77
2021/06/07 10:59:49;;;;;;;55.53;16.75;;;21.50;80.10;;;;;;5100796;28;20023;-79
2021/06/07 11:02:17;;;;;;;38.58;14.75;;;21.50;80.40;;;;;;5112612;28;20391;-80
2021/06/07 11:04:43;;;;;;;46.70;15.85;;;21.50;80.10;;;;;;5111445;28;20020;-80
2021/06/07 11:07:17;;;;;;;45.47;14.38;;;21.50;79.70;;;;;;5110051;28;20492;-79
2021/06/07 11:10:21;;;;;;;43.30;14.52;;;21.50;79.70;;;;;;5110885;28;20031;-79
2021/06/07 11:12:49;;;;;;;46.75;13.73;;;21.50;79.80;;;;;;5110719;28;20339;-80
2021/06/07 11:15:30;;;;;;;33.80;12.23;;;21.50;79.90;;;;;;5111085;28;20012;-78
2021/06/07 11:18:18;;;;;;;44.78;13.00;;;21.50;79.90;;;;;;5109249;28;20065;-78
2021/06/07 11:20:43;;;;;;;35.03;12.75;;;21.60;79.90;;;;;;5109657;28;20433;-79
2021/06/07 11:23:21;;;;;;;30.25;11.25;;;21.60;79.50;;;;;;5112368;28;20024;-80
2021/06/07 11:25:55;;;;;;;28.85;11.45;;;21.60;79.40;;;;;;5110838;28;20058;-80
2021/06/07 11:28:32;;;;;;;31.85;12.32;;;21.60;79.10;;;;;;5112203;28;20476;-82
2021/06/07 11:31:00;;;;;;;34.50;12.25;;;21.60;78.90;;;;;;5110084;28;20453;-81
2021/06/07 11:33:26;;;;;;;32.38;11.80;;;21.60;78.70;;;;;;5109785;28;20020;-81
2021/06/07 11:35:52;;;;;;;25.08;9.93;;;21.60;78.50;;;;;;5110215;28;20550;-81
2021/06/07 11:38:58;;;;;;;22.73;9.77;;;21.60;78.30;;;;;;5111698;28;20467;-80
2021/06/07 11:41:55;;;;;;;28.10;10.23;;;21.60;78.00;;;;;;5111314;28;20028;-80
2021/06/07 11:44:43;;;;;;;28.15;9.70;;;21.60;77.80;;;;;;5091279;28;20132;-81
2021/06/07 11:47:14;;;;;;;24.55;8.50;;;21.60;77.70;;;;;;5111701;28;20035;-81
2021/06/07 11:50:02;;;;;;;21.58;8.70;;;21.60;77.50;;;;;;5111415;28;20032;-81
2021/06/07 11:52:34;;;;;;;24.33;8.70;;;21.60;77.40;;;;;;5108004;28;20447;-81
2021/06/07 11:55:20;;;;;;;19.17;8.02;;;21.60;77.00;;;;;;5111301;28;20030;-82
2021/06/07 11:57:48;;;;;;;19.65;8.05;;;21.60;77.00;;;;;;5111944;28;20548;-84
2021/06/07 12:00:16;;;;;;;25.98;9.02;;;21.60;76.80;;;;;;5112157;28;20467;-83
2021/06/07 12:02:42;;;;;;;23.23;8.27;;;21.60;76.60;;;;;;5109601;28;20574;-82
2021/06/07 12:05:14;;;;;;;21.67;8.13;;;21.60;76.40;;;;;;5110941;28;20037;-81
2021/06/07 12:07:44;;;;;;;20.13;7.40;;;21.60;76.30;;;;;;5110379;28;20042;-82
2021/06/07 12:10:14;;;;;;;20.10;7.25;;;21.60;76.10;;;;;;5111369;28;20512;-80
2021/06/07 12:12:40;;;;;;;19.35;7.70;;;21.60;76.00;;;;;;5111289;28;20031;-80
2021/06/07 12:15:15;;;;;;;15.98;6.30;;;21.60;75.80;;;;;;5111562;28;20054;-80
2021/06/07 12:17:54;;;;;;;16.60;6.22;;;21.60;75.90;;;;;;5110900;28;20024;-79
2021/06/07 12:20:21;;;;;;;20.05;6.38;;;21.60;75.60;;;;;;5111535;28;20032;-81
2021/06/07 12:22:51;;;;;;;18.45;7.28;;;21.70;75.50;;;;;;5111383;28;20080;-80
2021/06/07 12:28:19;;;;;;;16.30;7.07;;;21.70;75.10;;;;;;5111059;28;20023;-80
2021/06/07 12:30:58;;;;;;;15.48;6.82;;;21.70;75.10;;;;;;5110187;28;20035;-83
2021/06/07 12:33:31;;;;;;;12.68;5.35;;;21.70;74.80;;;;;;5111160;28;20114;-83
2021/06/07 12:35:57;;;;;;;17.17;6.25;;;21.70;74.80;;;;;;5111579;28;20019;-81
2021/06/07 12:38:25;;;;;;;16.42;6.47;;;21.70;75.00;;;;;;5109689;28;20429;-84
2021/06/07 12:40:52;;;;;;;14.35;5.95;;;21.70;74.80;;;;;;5111744;28;20022;-89
2021/06/07 12:43:29;;;;;;;13.18;5.85;;;21.70;74.80;;;;;;5112033;28;20023;-87
2021/06/07 12:46:01;;;;;;;13.20;6.30;;;21.70;74.80;;;;;;5111307;28;20437;-87
2021/06/07 12:48:27;;;;;;;15.18;5.82;;;21.80;74.70;;;;;;5111509;28;20042;-85
2021/06/07 12:51:01;;;;;;;14.80;5.63;;;21.80;74.70;;;;;;5111326;28;20031;-87
2021/06/07 12:53:29;;;;;;;12.27;5.60;;;21.80;74.40;;;;;;5112048;28;20028;-88